sensor_id;sensor_type;location;lat;lon;timestamp;pressure;altitude;pressure_sealevel;temperature;humidity
59289;BME280;45056;47.602;9.886;2022-09-03T00:02:37;92677.31;;;17.84;62.48
59289;BME280;45056;47.602;9.886;2022-09-03T00:05:18;92683.78;;;17.81;62.38
59289;BME280;45056;47.602;9.886;2022-09-03T00:08:02;92677.28;;;17.78;62.31
59289;BME280;45056;47.602;9.886;2022-09-03T00:10:45;92670.50;;;17.73;62.34
59289;BME280;45056;47.602;9.886;2022-09-03T00:13:27;92674.50;;;17.67;62.79
59289;BME280;45056;47.602;9.886;2022-09-03T00:16:02;92680.22;;;17.63;62.83
59289;BME280;45056;47.602;9.886;2022-09-03T00:18:42;92682.44;;;17.59;63.07
59289;BME280;45056;47.602;9.886;2022-09-03T00:21:21;92687.91;;;17.53;63.41
59289;BME280;45056;47.602;9.886;2022-09-03T00:23:56;92684.16;;;17.51;63.35
59289;BME280;45056;47.602;9.886;2022-09-03T00:26:33;92686.16;;;17.50;63.39
59289;BME280;45056;47.602;9.886;2022-09-03T00:29:10;92685.16;;;17.48;63.13
59289;BME280;45056;47.602;9.886;2022-09-03T00:31:46;92684.88;;;17.45;63.01
59289;BME280;45056;47.602;9.886;2022-09-03T00:34:22;92683.09;;;17.42;62.83
59289;BME280;45056;47.602;9.886;2022-09-03T00:36:57;92680.09;;;17.40;62.84
59289;BME280;45056;47.602;9.886;2022-09-03T00:39:26;92682.84;;;17.40;62.70
59289;BME280;45056;47.602;9.886;2022-09-03T00:42:12;92684.88;;;17.40;62.98
59289;BME280;45056;47.602;9.886;2022-09-03T00:45:12;92683.63;;;17.41;63.12
59289;BME280;45056;47.602;9.886;2022-09-03T00:48:06;92678.13;;;17.41;62.96
59289;BME280;45056;47.602;9.886;2022-09-03T00:50:57;92672.38;;;17.39;62.79
59289;BME280;45056;47.602;9.886;2022-09-03T00:53:42;92674.84;;;17.37;62.67
59289;BME280;45056;47.602;9.886;2022-09-03T00:56:29;92673.09;;;17.34;62.99
59289;BME280;45056;47.602;9.886;2022-09-03T00:59:18;92676.78;;;17.30;62.73
59289;BME280;45056;47.602;9.886;2022-09-03T01:02:11;92667.56;;;17.28;63.19
59289;BME280;45056;47.602;9.886;2022-09-03T01:04:57;92671.53;;;17.27;63.33
59289;BME280;45056;47.602;9.886;2022-09-03T01:07:41;92669.78;;;17.24;63.14
59289;BME280;45056;47.602;9.886;2022-09-03T01:10:26;92677.78;;;17.22;62.95
59289;BME280;45056;47.602;9.886;2022-09-03T01:13:07;92678.25;;;17.20;62.91
59289;BME280;45056;47.602;9.886;2022-09-03T01:15:49;92679.22;;;17.17;63.02
59289;BME280;45056;47.602;9.886;2022-09-03T01:18:40;92676.97;;;17.15;62.95
59289;BME280;45056;47.602;9.886;2022-09-03T01:21:39;92663.72;;;17.14;63.18
59289;BME280;45056;47.602;9.886;2022-09-03T01:24:47;92666.94;;;17.12;63.10
59289;BME280;45056;47.602;9.886;2022-09-03T01:30:37;92664.91;;;17.01;63.60
59289;BME280;45056;47.602;9.886;2022-09-03T01:33:20;92665.38;;;17.00;63.43
59289;BME280;45056;47.602;9.886;2022-09-03T01:36:04;92658.38;;;16.99;63.76
59289;BME280;45056;47.602;9.886;2022-09-03T01:38:47;92657.84;;;16.95;63.18
59289;BME280;45056;47.602;9.886;2022-09-03T01:41:28;92666.81;;;16.90;62.94
59289;BME280;45056;47.602;9.886;2022-09-03T01:44:33;92673.28;;;16.86;63.17
59289;BME280;45056;47.602;9.886;2022-09-03T01:47:17;92673.00;;;16.84;63.49
59289;BME280;45056;47.602;9.886;2022-09-03T01:50:05;92679.72;;;16.83;63.47
59289;BME280;45056;47.602;9.886;2022-09-03T01:52:44;92672.72;;;16.82;63.58
59289;BME280;45056;47.602;9.886;2022-09-03T01:55:30;92678.22;;;16.82;63.60
59289;BME280;45056;47.602;9.886;2022-09-03T01:58:13;92676.19;;;16.77;63.42
59289;BME280;45056;47.602;9.886;2022-09-03T02:00:52;92681.16;;;16.73;63.54
59289;BME280;45056;47.602;9.886;2022-09-03T02:03:33;92692.91;;;16.73;63.70
59289;BME280;45056;47.602;9.886;2022-09-03T02:06:06;92722.34;;;16.73;63.68
59289;BME280;45056;47.602;9.886;2022-09-03T02:08:35;92724.09;;;16.70;63.68
59289;BME280;45056;47.602;9.886;2022-09-03T02:11:06;92715.56;;;16.68;63.95
59289;BME280;45056;47.602;9.886;2022-09-03T02:13:39;92746.56;;;16.69;64.00
59289;BME280;45056;47.602;9.886;2022-09-03T02:16:14;92755.31;;;16.73;64.17
59289;BME280;45056;47.602;9.886;2022-09-03T02:18:47;92760.09;;;16.72;63.56
59289;BME280;45056;47.602;9.886;2022-09-03T02:21:20;92761.09;;;16.75;62.65
59289;BME280;45056;47.602;9.886;2022-09-03T02:23:51;92769.38;;;16.81;62.26
59289;BME280;45056;47.602;9.886;2022-09-03T02:26:22;92769.44;;;16.86;63.84
59289;BME280;45056;47.602;9.886;2022-09-03T02:28:52;92768.72;;;16.92;64.62
59289;BME280;45056;47.602;9.886;2022-09-03T02:31:22;92771.50;;;16.97;64.98
59289;BME280;45056;47.602;9.886;2022-09-03T02:33:51;92778.13;;;17.06;65.48
59289;BME280;45056;47.602;9.886;2022-09-03T02:36:27;92776.91;;;17.12;65.81
59289;BME280;45056;47.602;9.886;2022-09-03T02:38:58;92771.44;;;17.18;66.50
59289;BME280;45056;47.602;9.886;2022-09-03T02:41:26;92770.00;;;17.23;66.91
59289;BME280;45056;47.602;9.886;2022-09-03T02:44:00;92770.53;;;17.27;67.46
59289;BME280;45056;47.602;9.886;2022-09-03T02:46:37;92770.78;;;17.29;68.13
59289;BME280;45056;47.602;9.886;2022-09-03T02:49:08;92778.06;;;17.32;68.33
59289;BME280;45056;47.602;9.886;2022-09-03T02:51:39;92769.81;;;17.32;68.81
59289;BME280;45056;47.602;9.886;2022-09-03T02:54:10;92776.81;;;17.33;68.90
59289;BME280;45056;47.602;9.886;2022-09-03T02:56:39;92767.31;;;17.34;69.20
59289;BME280;45056;47.602;9.886;2022-09-03T02:59:08;92769.59;;;17.36;69.25
59289;BME280;45056;47.602;9.886;2022-09-03T03:01:38;92766.59;;;17.39;69.07
59289;BME280;45056;47.602;9.886;2022-09-03T03:04:06;92773.13;;;17.42;69.08
59289;BME280;45056;47.602;9.886;2022-09-03T03:06:34;92774.88;;;17.45;69.23
59289;BME280;45056;47.602;9.886;2022-09-03T03:09:02;92773.16;;;17.48;69.39
59289;BME280;45056;47.602;9.886;2022-09-03T03:11:31;92787.66;;;17.48;69.48
59289;BME280;45056;47.602;9.886;2022-09-03T03:13:59;92784.44;;;17.50;69.32
59289;BME280;45056;47.602;9.886;2022-09-03T03:16:27;92776.44;;;17.52;69.26
59289;BME280;45056;47.602;9.886;2022-09-03T03:18:57;92780.69;;;17.53;69.23
59289;BME280;45056;47.602;9.886;2022-09-03T03:21:25;92773.44;;;17.55;68.91
59289;BME280;45056;47.602;9.886;2022-09-03T03:23:53;92768.97;;;17.58;68.84
59289;BME280;45056;47.602;9.886;2022-09-03T03:26:22;92773.47;;;17.61;68.43
59289;BME280;45056;47.602;9.886;2022-09-03T03:28:56;92775.72;;;17.63;68.33
59289;BME280;45056;47.602;9.886;2022-09-03T03:31:26;92780.75;;;17.64;68.39
59289;BME280;45056;47.602;9.886;2022-09-03T03:33:58;92775.72;;;17.63;68.04
59289;BME280;45056;47.602;9.886;2022-09-03T03:36:31;92783.72;;;17.60;67.71
59289;BME280;45056;47.602;9.886;2022-09-03T03:39:01;92776.19;;;17.55;67.33
59289;BME280;45056;47.602;9.886;2022-09-03T03:41:31;92776.44;;;17.52;66.96
59289;BME280;45056;47.602;9.886;2022-09-03T03:44:03;92772.91;;;17.51;67.01
59289;BME280;45056;47.602;9.886;2022-09-03T03:46:33;92781.94;;;17.52;66.84
59289;BME280;45056;47.602;9.886;2022-09-03T03:49:05;92776.69;;;17.54;66.74
59289;BME280;45056;47.602;9.886;2022-09-03T03:51:35;92779.72;;;17.56;66.80
59289;BME280;45056;47.602;9.886;2022-09-03T03:54:04;92778.47;;;17.57;66.91
59289;BME280;45056;47.602;9.886;2022-09-03T03:56:33;92779.97;;;17.58;66.91
59289;BME280;45056;47.602;9.886;2022-09-03T03:59:03;92770.22;;;17.57;67.05
59289;BME280;45056;47.602;9.886;2022-09-03T04:01:31;92765.97;;;17.56;67.26
59289;BME280;45056;47.602;9.886;2022-09-03T04:03:59;92774.22;;;17.56;67.26
59289;BME280;45056;47.602;9.886;2022-09-03T04:06:28;92769.44;;;17.56;67.13
59289;BME280;45056;47.602;9.886;2022-09-03T04:08:56;92770.69;;;17.55;67.45
59289;BME280;45056;47.602;9.886;2022-09-03T04:11:25;92776.44;;;17.52;67.48
59289;BME280;45056;47.602;9.886;2022-09-03T04:13:53;92772.66;;;17.49;67.62
59289;BME280;45056;47.602;9.886;2022-09-03T04:16:23;92769.16;;;17.49;67.57
59289;BME280;45056;47.602;9.886;2022-09-03T04:18:58;92761.41;;;17.47;67.54
59289;BME280;45056;47.602;9.886;2022-09-03T04:21:30;92750.88;;;17.45;67.54
59289;BME280;45056;47.602;9.886;2022-09-03T04:23:58;92756.13;;;17.43;67.46
59289;BME280;45056;47.602;9.886;2022-09-03T04:26:29;92770.13;;;17.45;67.48
59289;BME280;45056;47.602;9.886;2022-09-03T04:28:59;92773.91;;;17.48;67.46
59289;BME280;45056;47.602;9.886;2022-09-03T04:31:31;92781.16;;;17.51;67.35
59289;BME280;45056;47.602;9.886;2022-09-03T04:34:00;92779.94;;;17.52;67.35
59289;BME280;45056;47.602;9.886;2022-09-03T04:36:31;92780.69;;;17.53;67.26
59289;BME280;45056;47.602;9.886;2022-09-03T04:39:00;92784.69;;;17.52;67.12
59289;BME280;45056;47.602;9.886;2022-09-03T04:41:30;92788.94;;;17.53;66.85
59289;BME280;45056;47.602;9.886;2022-09-03T04:43:59;92784.69;;;17.52;66.88
59289;BME280;45056;47.602;9.886;2022-09-03T04:46:28;92790.19;;;17.52;66.64
59289;BME280;45056;47.602;9.886;2022-09-03T04:48:58;92783.19;;;17.51;65.83
59289;BME280;45056;47.602;9.886;2022-09-03T04:51:27;92775.41;;;17.49;65.66
59289;BME280;45056;47.602;9.886;2022-09-03T04:53:59;92779.66;;;17.50;65.61
59289;BME280;45056;47.602;9.886;2022-09-03T04:56:30;92783.44;;;17.53;65.56
59289;BME280;45056;47.602;9.886;2022-09-03T04:59:02;92775.94;;;17.53;65.46
59289;BME280;45056;47.602;9.886;2022-09-03T05:01:33;92789.22;;;17.55;65.59
59289;BME280;45056;47.602;9.886;2022-09-03T05:04:03;92798.69;;;17.54;65.78
59289;BME280;45056;47.602;9.886;2022-09-03T05:06:34;92804.22;;;17.54;65.57
59289;BME280;45056;47.602;9.886;2022-09-03T05:09:04;92805.72;;;17.55;65.38
59289;BME280;45056;47.602;9.886;2022-09-03T05:11:33;92798.69;;;17.54;65.22
59289;BME280;45056;47.602;9.886;2022-09-03T05:14:01;92798.69;;;17.54;65.12
59289;BME280;45056;47.602;9.886;2022-09-03T05:16:31;92804.94;;;17.54;64.63
59289;BME280;45056;47.602;9.886;2022-09-03T05:18:59;92804.94;;;17.54;64.40
59289;BME280;45056;47.602;9.886;2022-09-03T05:21:33;92798.69;;;17.54;64.28
59289;BME280;45056;47.602;9.886;2022-09-03T05:24:03;92806.97;;;17.54;64.04
59289;BME280;45056;47.602;9.886;2022-09-03T05:26:35;92800.69;;;17.53;64.05
59289;BME280;45056;47.602;9.886;2022-09-03T05:29:06;92806.44;;;17.55;63.87
59289;BME280;45056;47.602;9.886;2022-09-03T05:31:38;92808.47;;;17.55;63.73
59289;BME280;45056;47.602;9.886;2022-09-03T05:34:07;92805.72;;;17.55;63.75
59289;BME280;45056;47.602;9.886;2022-09-03T05:36:38;92817.44;;;17.55;63.44
59289;BME280;45056;47.602;9.886;2022-09-03T05:39:06;92817.72;;;17.57;63.46
59289;BME280;45056;47.602;9.886;2022-09-03T05:41:34;92820.00;;;17.59;63.50
59289;BME280;45056;47.602;9.886;2022-09-03T05:44:02;92821.00;;;17.62;63.17
59289;BME280;45056;47.602;9.886;2022-09-03T05:46:32;92824.03;;;17.64;63.11
59289;BME280;45056;47.602;9.886;2022-09-03T05:49:04;92821.03;;;17.67;62.69
59289;BME280;45056;47.602;9.886;2022-09-03T05:51:34;92827.81;;;17.72;62.74
59289;BME280;45056;47.602;9.886;2022-09-03T05:54:06;92824.81;;;17.76;62.21
59289;BME280;45056;47.602;9.886;2022-09-03T05:56:36;92831.63;;;17.80;62.05
59289;BME280;45056;47.602;9.886;2022-09-03T05:59:08;92837.16;;;17.86;61.57
59289;BME280;45056;47.602;9.886;2022-09-03T06:01:39;92839.94;;;17.92;61.03
59289;BME280;45056;47.602;9.886;2022-09-03T06:04:10;92833.72;;;17.97;60.68
59289;BME280;45056;47.602;9.886;2022-09-03T06:06:41;92840.50;;;18.01;60.74
59289;BME280;45056;47.602;9.886;2022-09-03T06:09:13;92833.03;;;18.08;60.66
59289;BME280;45056;47.602;9.886;2022-09-03T06:11:45;92826.56;;;18.11;60.54
59289;BME280;45056;47.602;9.886;2022-09-03T06:14:15;92830.56;;;18.15;60.67
59289;BME280;45056;47.602;9.886;2022-09-03T06:16:45;92834.63;;;18.20;61.37
59289;BME280;45056;47.602;9.886;2022-09-03T06:19:15;92836.13;;;18.21;61.66
59289;BME280;45056;47.602;9.886;2022-09-03T06:21:45;92840.84;;;18.21;62.12
59289;BME280;45056;47.602;9.886;2022-09-03T06:24:16;92837.09;;;18.18;61.82
59289;BME280;45056;47.602;9.886;2022-09-03T06:26:45;92820.31;;;18.16;61.47
59289;BME280;45056;47.602;9.886;2022-09-03T06:29:14;92814.31;;;18.17;61.46
59289;BME280;45056;47.602;9.886;2022-09-03T06:31:45;92821.31;;;18.19;61.62
59289;BME280;45056;47.602;9.886;2022-09-03T06:34:13;92823.59;;;18.20;61.17
59289;BME280;45056;47.602;9.886;2022-09-03T06:36:44;92820.34;;;18.22;61.08
59289;BME280;45056;47.602;9.886;2022-09-03T06:39:12;92821.84;;;18.23;60.96
59289;BME280;45056;47.602;9.886;2022-09-03T06:41:41;92824.59;;;18.23;61.04
59289;BME280;45056;47.602;9.886;2022-09-03T06:44:10;92814.34;;;18.23;61.53
59289;BME280;45056;47.602;9.886;2022-09-03T06:46:40;92821.34;;;18.24;61.56
59289;BME280;45056;47.602;9.886;2022-09-03T06:49:09;92819.63;;;18.27;61.69
59289;BME280;45056;47.602;9.886;2022-09-03T06:51:38;92816.13;;;18.32;61.67
59289;BME280;45056;47.602;9.886;2022-09-03T06:54:10;92815.41;;;18.37;61.33
59289;BME280;45056;47.602;9.886;2022-09-03T06:56:41;92814.41;;;18.40;60.97
59289;BME280;45056;47.602;9.886;2022-09-03T06:59:11;92809.19;;;18.48;60.96
59289;BME280;45056;47.602;9.886;2022-09-03T07:01:42;92811.25;;;18.76;60.61
59289;BME280;45056;47.602;9.886;2022-09-03T07:04:12;92812.81;;;19.57;59.72
59289;BME280;45056;47.602;9.886;2022-09-03T07:06:41;92818.56;;;20.64;57.45
59289;BME280;45056;47.602;9.886;2022-09-03T07:09:11;92825.63;;;21.43;54.17
59289;BME280;45056;47.602;9.886;2022-09-03T07:11:42;92818.19;;;21.57;52.51
59289;BME280;45056;47.602;9.886;2022-09-03T07:14:13;92829.66;;;21.42;52.41
59289;BME280;45056;47.602;9.886;2022-09-03T07:16:42;92823.75;;;21.21;52.31
59289;BME280;45056;47.602;9.886;2022-09-03T07:19:11;92822.19;;;20.95;52.35
59289;BME280;45056;47.602;9.886;2022-09-03T07:21:41;92828.53;;;20.72;52.75
59289;BME280;45056;47.602;9.886;2022-09-03T07:24:11;92820.09;;;20.53;53.54
59289;BME280;45056;47.602;9.886;2022-09-03T07:26:42;92823.66;;;20.42;54.23
59289;BME280;45056;47.602;9.886;2022-09-03T07:29:11;92816.44;;;20.33;54.44
59289;BME280;45056;47.602;9.886;2022-09-03T07:31:42;92815.19;;;20.23;54.18
59289;BME280;45056;47.602;9.886;2022-09-03T07:34:12;92810.72;;;20.14;54.01
59289;BME280;45056;47.602;9.886;2022-09-03T07:36:43;92822.50;;;20.09;54.02
59289;BME280;45056;47.602;9.886;2022-09-03T07:39:14;92815.78;;;20.04;55.06
59289;BME280;45056;47.602;9.886;2022-09-03T07:41:45;92813.78;;;19.94;55.95
59289;BME280;45056;47.602;9.886;2022-09-03T07:44:15;92806.50;;;19.85;56.40
59289;BME280;45056;47.602;9.886;2022-09-03T07:46:46;92802.22;;;19.78;57.36
59289;BME280;45056;47.602;9.886;2022-09-03T07:49:16;92804.00;;;19.64;56.90
59289;BME280;45056;47.602;9.886;2022-09-03T07:51:44;92773.94;;;19.49;57.17
59289;BME280;45056;47.602;9.886;2022-09-03T07:54:15;92770.72;;;19.39;57.97
59289;BME280;45056;47.602;9.886;2022-09-03T07:56:45;92766.94;;;19.31;58.17
59289;BME280;45056;47.602;9.886;2022-09-03T07:59:13;92759.94;;;19.24;59.08
59289;BME280;45056;47.602;9.886;2022-09-03T08:01:41;92763.47;;;19.19;59.65
59289;BME280;45056;47.602;9.886;2022-09-03T08:04:09;92774.47;;;19.13;59.43
59289;BME280;45056;47.602;9.886;2022-09-03T08:06:37;92769.97;;;19.05;58.61
59289;BME280;45056;47.602;9.886;2022-09-03T08:09:08;92783.44;;;18.97;57.65
59289;BME280;45056;47.602;9.886;2022-09-03T08:11:41;92777.94;;;18.97;57.53
59289;BME280;45056;47.602;9.886;2022-09-03T08:14:12;92789.25;;;19.05;57.12
59289;BME280;45056;47.602;9.886;2022-09-03T08:16:44;92794.25;;;19.12;57.11
59289;BME280;45056;47.602;9.886;2022-09-03T08:19:14;92789.25;;;19.22;57.11
59289;BME280;45056;47.602;9.886;2022-09-03T08:21:43;92783.47;;;19.31;56.92
59289;BME280;45056;47.602;9.886;2022-09-03T08:24:14;92787.50;;;19.41;56.79
59289;BME280;45056;47.602;9.886;2022-09-03T08:26:44;92788.00;;;19.51;56.34
59289;BME280;45056;47.602;9.886;2022-09-03T08:29:13;92793.50;;;19.63;56.23
59289;BME280;45056;47.602;9.886;2022-09-03T08:31:42;92789.19;;;19.73;56.03
59289;BME280;45056;47.602;9.886;2022-09-03T08:34:10;92780.41;;;19.80;55.86
59289;BME280;45056;47.602;9.886;2022-09-03T08:36:39;92782.13;;;19.89;55.75
59289;BME280;45056;47.602;9.886;2022-09-03T08:39:09;92782.91;;;19.95;55.54
59289;BME280;45056;47.602;9.886;2022-09-03T08:42:04;92789.66;;;20.06;55.08
59289;BME280;45056;47.602;9.886;2022-09-03T08:44:55;92787.63;;;20.12;54.50
59289;BME280;45056;47.602;9.886;2022-09-03T08:47:31;92792.91;;;20.15;53.88
59289;BME280;45056;47.602;9.886;2022-09-03T08:50:11;92792.13;;;20.15;53.44
59289;BME280;45056;47.602;9.886;2022-09-03T08:52:51;92802.69;;;20.16;53.40
59289;BME280;45056;47.602;9.886;2022-09-03T08:55:26;92797.41;;;20.18;53.15
59289;BME280;45056;47.602;9.886;2022-09-03T08:58:01;92795.34;;;20.25;53.36
59289;BME280;45056;47.602;9.886;2022-09-03T09:00:44;92802.38;;;20.31;53.16
59289;BME280;45056;47.602;9.886;2022-09-03T09:03:42;92795.53;;;20.44;53.09
59289;BME280;45056;47.602;9.886;2022-09-03T09:06:32;92800.50;;;20.57;52.66
59289;BME280;45056;47.602;9.886;2022-09-03T09:09:21;92795.41;;;20.67;52.36
59289;BME280;45056;47.602;9.886;2022-09-03T09:12:03;92789.34;;;20.74;51.74
59289;BME280;45056;47.602;9.886;2022-09-03T09:14:49;92790.06;;;20.80;51.36
59289;BME280;45056;47.602;9.886;2022-09-03T09:17:48;92797.09;;;20.87;50.99
59289;BME280;45056;47.602;9.886;2022-09-03T09:20:39;92785.00;;;20.90;50.60
59289;BME280;45056;47.602;9.886;2022-09-03T09:23:14;92793.53;;;20.92;49.89
59289;BME280;45056;47.602;9.886;2022-09-03T09:25:50;92791.28;;;20.90;49.44
59289;BME280;45056;47.602;9.886;2022-09-03T09:28:23;92774.97;;;20.87;49.30
59289;BME280;45056;47.602;9.886;2022-09-03T09:30:56;92785.75;;;20.90;49.82
59289;BME280;45056;47.602;9.886;2022-09-03T09:33:30;92783.22;;;20.93;49.97
59289;BME280;45056;47.602;9.886;2022-09-03T09:36:02;92776.66;;;20.96;50.17
59289;BME280;45056;47.602;9.886;2022-09-03T09:38:37;92784.44;;;20.97;50.20
59289;BME280;45056;47.602;9.886;2022-09-03T09:41:11;92781.16;;;20.99;50.20
59289;BME280;45056;47.602;9.886;2022-09-03T09:43:41;92785.16;;;21.03;50.46
59289;BME280;45056;47.602;9.886;2022-09-03T09:46:14;92772.53;;;21.08;50.40
59289;BME280;45056;47.602;9.886;2022-09-03T09:48:50;92778.53;;;21.12;49.33
59289;BME280;45056;47.602;9.886;2022-09-03T09:51:22;92782.53;;;21.17;48.37
59289;BME280;45056;47.602;9.886;2022-09-03T09:54:03;92780.75;;;21.19;47.93
59289;BME280;45056;47.602;9.886;2022-09-03T09:56:41;92778.25;;;21.22;47.74
59289;BME280;45056;47.602;9.886;2022-09-03T09:59:12;92778.97;;;21.22;47.62
59289;BME280;45056;47.602;9.886;2022-09-03T10:01:42;92783.47;;;21.25;47.91
59289;BME280;45056;47.602;9.886;2022-09-03T10:04:21;92790.25;;;21.30;46.78
59289;BME280;45056;47.602;9.886;2022-09-03T10:06:55;92782.66;;;21.36;46.38
59289;BME280;45056;47.602;9.886;2022-09-03T10:09:27;92787.09;;;21.45;47.05
59289;BME280;45056;47.602;9.886;2022-09-03T10:12:07;92788.78;;;21.54;50.12
59289;BME280;45056;47.602;9.886;2022-09-03T10:14:46;92783.72;;;21.58;52.34
59289;BME280;45056;47.602;9.886;2022-09-03T10:17:26;92788.22;;;21.61;53.64
59289;BME280;45056;47.602;9.886;2022-09-03T10:20:08;92782.91;;;21.63;54.12
59289;BME280;45056;47.602;9.886;2022-09-03T10:23:04;92791.19;;;21.69;53.98
59289;BME280;45056;47.602;9.886;2022-09-03T10:25:45;92794.44;;;21.73;54.46
59289;BME280;45056;47.602;9.886;2022-09-03T10:28:27;92793.09;;;21.80;54.81
59289;BME280;45056;47.602;9.886;2022-09-03T10:31:17;92794.03;;;21.88;54.80
59289;BME280;45056;47.602;9.886;2022-09-03T10:34:13;92784.59;;;21.97;54.69
59289;BME280;45056;47.602;9.886;2022-09-03T10:36:58;92793.91;;;21.99;54.11
59289;BME280;45056;47.602;9.886;2022-09-03T10:39:50;92793.84;;;22.05;53.51
59289;BME280;45056;47.602;9.886;2022-09-03T10:42:42;92799.09;;;22.09;53.22
59289;BME280;45056;47.602;9.886;2022-09-03T10:45:29;92805.84;;;22.13;53.33
59289;BME280;45056;47.602;9.886;2022-09-03T10:51:12;92795.16;;;22.23;52.55
59289;BME280;45056;47.602;9.886;2022-09-03T10:54:20;92790.06;;;22.27;52.28
59289;BME280;45056;47.602;9.886;2022-09-03T10:57:10;92799.59;;;22.32;51.17
59289;BME280;45056;47.602;9.886;2022-09-03T11:00:01;92792.19;;;22.40;48.31
59289;BME280;45056;47.602;9.886;2022-09-03T11:03:02;92788.56;;;22.51;46.54
59289;BME280;45056;47.602;9.886;2022-09-03T11:06:06;92784.88;;;22.62;45.11
59289;BME280;45056;47.602;9.886;2022-09-03T11:08:47;92791.63;;;22.67;45.65
59289;BME280;45056;47.602;9.886;2022-09-03T11:11:30;92787.78;;;22.70;45.28
59289;BME280;45056;47.602;9.886;2022-09-03T11:14:07;92794.53;;;22.74;44.99
59289;BME280;45056;47.602;9.886;2022-09-03T11:16:42;92797.75;;;22.79;44.41
59289;BME280;45056;47.602;9.886;2022-09-03T11:19:16;92807.50;;;22.85;44.52
59289;BME280;45056;47.602;9.886;2022-09-03T11:21:50;92813.50;;;22.89;46.17
59289;BME280;45056;47.602;9.886;2022-09-03T11:24:23;92806.97;;;22.87;46.88
59289;BME280;45056;47.602;9.886;2022-09-03T11:27:01;92825.22;;;22.82;47.61
59289;BME280;45056;47.602;9.886;2022-09-03T11:29:51;92840.47;;;22.70;48.08
59289;BME280;45056;47.602;9.886;2022-09-03T11:32:39;92851.50;;;22.56;48.35
59289;BME280;45056;47.602;9.886;2022-09-03T11:35:22;92849.13;;;22.41;48.24
59289;BME280;45056;47.602;9.886;2022-09-03T11:37:58;92862.84;;;22.28;48.38
59289;BME280;45056;47.602;9.886;2022-09-03T11:40:32;92868.28;;;22.14;48.98
59289;BME280;45056;47.602;9.886;2022-09-03T11:43:10;92877.00;;;21.99;49.55
59289;BME280;45056;47.602;9.886;2022-09-03T11:46:01;92891.03;;;21.76;51.42
59289;BME280;45056;47.602;9.886;2022-09-03T11:48:40;92887.94;;;21.50;52.53
59289;BME280;45056;47.602;9.886;2022-09-03T11:51:29;92891.13;;;21.29;53.69
59289;BME280;45056;47.602;9.886;2022-09-03T11:54:03;92894.47;;;21.10;54.27
59289;BME280;45056;47.602;9.886;2022-09-03T11:56:34;92901.38;;;20.92;55.15
59289;BME280;45056;47.602;9.886;2022-09-03T11:59:18;92898.66;;;20.75;55.13
59289;BME280;45056;47.602;9.886;2022-09-03T12:01:56;92893.94;;;20.58;55.12
59289;BME280;45056;47.602;9.886;2022-09-03T12:04:37;92892.25;;;20.38;55.56
59289;BME280;45056;47.602;9.886;2022-09-03T12:07:43;92908.63;;;20.19;56.20
59289;BME280;45056;47.602;9.886;2022-09-03T12:10:38;92909.16;;;19.95;56.47
59289;BME280;45056;47.602;9.886;2022-09-03T12:13:29;92921.44;;;19.71;56.82
59289;BME280;45056;47.602;9.886;2022-09-03T12:16:33;92925.44;;;19.47;56.76
59289;BME280;45056;47.602;9.886;2022-09-03T12:19:16;92927.66;;;19.26;57.40
59289;BME280;45056;47.602;9.886;2022-09-03T12:21:52;92940.66;;;19.14;57.89
59289;BME280;45056;47.602;9.886;2022-09-03T12:24:20;92942.91;;;19.04;58.79
59289;BME280;45056;47.602;9.886;2022-09-03T12:26:49;92937.56;;;18.95;59.50
59289;BME280;45056;47.602;9.886;2022-09-03T12:29:22;92936.81;;;18.88;60.38
59289;BME280;45056;47.602;9.886;2022-09-03T12:31:54;92931.25;;;18.83;61.35
59289;BME280;45056;47.602;9.886;2022-09-03T12:34:23;92935.53;;;18.78;61.63
59289;BME280;45056;47.602;9.886;2022-09-03T12:36:54;92931.97;;;18.72;62.10
59289;BME280;45056;47.602;9.886;2022-09-03T12:39:24;92937.97;;;18.65;62.28
59289;BME280;45056;47.602;9.886;2022-09-03T12:41:59;92934.44;;;18.58;62.10
59289;BME280;45056;47.602;9.886;2022-09-03T12:44:31;92945.91;;;18.51;62.18
59289;BME280;45056;47.602;9.886;2022-09-03T12:47:11;92936.13;;;18.44;61.93
59289;BME280;45056;47.602;9.886;2022-09-03T12:49:44;92930.56;;;18.39;62.13
59289;BME280;45056;47.602;9.886;2022-09-03T12:52:19;92928.81;;;18.36;62.00
59289;BME280;45056;47.602;9.886;2022-09-03T12:54:58;92922.03;;;18.31;62.25
59289;BME280;45056;47.602;9.886;2022-09-03T12:57:36;92929.78;;;18.27;62.15
59289;BME280;45056;47.602;9.886;2022-09-03T13:00:13;92926.00;;;18.24;62.27
59289;BME280;45056;47.602;9.886;2022-09-03T13:02:51;92922.72;;;18.20;63.12
59289;BME280;45056;47.602;9.886;2022-09-03T13:05:29;92928.19;;;18.14;63.98
59289;BME280;45056;47.602;9.886;2022-09-03T13:08:03;92901.16;;;18.13;64.57
59289;BME280;45056;47.602;9.886;2022-09-03T13:10:38;92898.94;;;18.17;65.10
59289;BME280;45056;47.602;9.886;2022-09-03T13:13:21;92903.44;;;18.20;64.73
59289;BME280;45056;47.602;9.886;2022-09-03T13:16:15;92898.47;;;18.24;64.88
59289;BME280;45056;47.602;9.886;2022-09-03T13:19:15;92892.22;;;18.29;65.19
59289;BME280;45056;47.602;9.886;2022-09-03T13:21:58;92897.00;;;18.35;64.96
59289;BME280;45056;47.602;9.886;2022-09-03T13:24:57;92887.75;;;18.38;65.03
59289;BME280;45056;47.602;9.886;2022-09-03T13:27:42;92896.28;;;18.40;65.21
59289;BME280;45056;47.602;9.886;2022-09-03T13:30:21;92881.06;;;18.50;64.90
59289;BME280;45056;47.602;9.886;2022-09-03T13:33:04;92889.94;;;18.77;65.08
59289;BME280;45056;47.602;9.886;2022-09-03T13:35:46;92888.78;;;19.12;64.85
59289;BME280;45056;47.602;9.886;2022-09-03T13:38:26;92889.31;;;19.45;63.49
59289;BME280;45056;47.602;9.886;2022-09-03T13:41:08;92876.78;;;19.67;60.74
59289;BME280;45056;47.602;9.886;2022-09-03T13:43:53;92883.53;;;19.77;59.28
59289;BME280;45056;47.602;9.886;2022-09-03T13:46:40;92873.00;;;19.70;58.36
59289;BME280;45056;47.602;9.886;2022-09-03T13:49:22;92884.31;;;19.66;58.93
59289;BME280;45056;47.602;9.886;2022-09-03T13:52:29;92871.00;;;19.65;58.46
59289;BME280;45056;47.602;9.886;2022-09-03T13:55:11;92880.31;;;19.67;59.57